Trexlertown, Pennsylvania
Current Conditions -  °F | °C
As of 7:35 AM on Monday 24 Nov 2014 (Local Time) from KXLL Reporting Station
Overcast Overcast  
Wind Chill: 63°   Ceiling: 2100
Heat Index: 63°   Visibility: 10mi
Dew Point: 59°   Wind: 16mph
Humidity: 88%   Direction: 190°S
Pressure: 29.64"   Gusts: 23mph
Location:  40.55°N, 75.61°W
Report Text: KXLL 241235Z AUTO 19014G20KT 10SM BKN021 OVC026 17/15 A2964 RMK AO2
Loading
Personal Weather Stations






























Interactive Weather Map New forecast layout! Learn more

10-Day Weather Forecast

Advertisements
Track Severe Weather on mobile